sensor_id;sensor_type;location;lat;lon;timestamp;P1;durP1;ratioP1;P2;durP2;ratioP2
8488;SDS011;4281;45.772;12.852;2023-02-28T00:01:24;5.00;;;3.90;;
8488;SDS011;4281;45.772;12.852;2023-02-28T00:03:53;4.97;;;4.00;;
8488;SDS011;4281;45.772;12.852;2023-02-28T00:06:22;4.87;;;4.30;;
8488;SDS011;4281;45.772;12.852;2023-02-28T00:08:50;4.63;;;4.23;;
8488;SDS011;4281;45.772;12.852;2023-02-28T00:11:18;4.70;;;4.13;;
8488;SDS011;4281;45.772;12.852;2023-02-28T00:13:47;4.47;;;4.07;;
8488;SDS011;4281;45.772;12.852;2023-02-28T00:16:16;5.13;;;4.63;;
8488;SDS011;4281;45.772;12.852;2023-02-28T00:18:45;5.20;;;4.70;;
8488;SDS011;4281;45.772;12.852;2023-02-28T00:21:14;5.53;;;4.13;;
8488;SDS011;4281;45.772;12.852;2023-02-28T00:23:43;4.90;;;4.10;;
8488;SDS011;4281;45.772;12.852;2023-02-28T00:26:11;5.13;;;4.07;;
8488;SDS011;4281;45.772;12.852;2023-02-28T00:28:39;4.53;;;4.07;;
8488;SDS011;4281;45.772;12.852;2023-02-28T00:31:08;4.23;;;3.80;;
8488;SDS011;4281;45.772;12.852;2023-02-28T00:33:36;4.60;;;4.10;;
8488;SDS011;4281;45.772;12.852;2023-02-28T00:36:04;3.77;;;3.47;;
8488;SDS011;4281;45.772;12.852;2023-02-28T00:38:33;5.70;;;4.53;;
8488;SDS011;4281;45.772;12.852;2023-02-28T00:43:54;4.30;;;3.90;;
8488;SDS011;4281;45.772;12.852;2023-02-28T00:46:23;4.40;;;4.00;;
8488;SDS011;4281;45.772;12.852;2023-02-28T00:48:51;4.73;;;4.20;;
8488;SDS011;4281;45.772;12.852;2023-02-28T00:51:19;4.27;;;3.57;;
8488;SDS011;4281;45.772;12.852;2023-02-28T00:53:47;4.27;;;3.87;;
8488;SDS011;4281;45.772;12.852;2023-02-28T00:56:14;4.37;;;3.97;;
8488;SDS011;4281;45.772;12.852;2023-02-28T00:58:42;4.53;;;4.13;;
8488;SDS011;4281;45.772;12.852;2023-02-28T01:01:10;4.17;;;3.57;;
8488;SDS011;4281;45.772;12.852;2023-02-28T01:03:39;3.67;;;3.37;;
8488;SDS011;4281;45.772;12.852;2023-02-28T01:06:08;4.67;;;4.27;;
8488;SDS011;4281;45.772;12.852;2023-02-28T01:08:36;4.20;;;3.80;;
8488;SDS011;4281;45.772;12.852;2023-02-28T01:11:07;5.30;;;3.60;;
8488;SDS011;4281;45.772;12.852;2023-02-28T01:13:36;4.07;;;3.67;;
8488;SDS011;4281;45.772;12.852;2023-02-28T01:16:05;4.47;;;3.87;;
8488;SDS011;4281;45.772;12.852;2023-02-28T01:18:33;4.20;;;3.80;;
8488;SDS011;4281;45.772;12.852;2023-02-28T01:21:04;4.43;;;3.97;;
8488;SDS011;4281;45.772;12.852;2023-02-28T01:23:32;4.60;;;3.97;;
8488;SDS011;4281;45.772;12.852;2023-02-28T01:26:03;4.10;;;3.60;;
8488;SDS011;4281;45.772;12.852;2023-02-28T01:28:31;4.77;;;3.97;;
8488;SDS011;4281;45.772;12.852;2023-02-28T01:30:59;4.60;;;4.13;;
8488;SDS011;4281;45.772;12.852;2023-02-28T01:33:28;4.60;;;4.10;;
8488;SDS011;4281;45.772;12.852;2023-02-28T01:36:06;4.17;;;3.60;;
8488;SDS011;4281;45.772;12.852;2023-02-28T01:38:37;4.90;;;3.60;;
8488;SDS011;4281;45.772;12.852;2023-02-28T01:41:08;4.63;;;3.87;;
8488;SDS011;4281;45.772;12.852;2023-02-28T01:43:55;4.00;;;3.60;;
8488;SDS011;4281;45.772;12.852;2023-02-28T01:46:25;4.60;;;4.10;;
8488;SDS011;4281;45.772;12.852;2023-02-28T01:48:54;4.23;;;3.83;;
8488;SDS011;4281;45.772;12.852;2023-02-28T01:51:28;4.13;;;3.83;;
8488;SDS011;4281;45.772;12.852;2023-02-28T01:53:59;4.33;;;3.93;;
8488;SDS011;4281;45.772;12.852;2023-02-28T01:56:30;4.30;;;3.90;;
8488;SDS011;4281;45.772;12.852;2023-02-28T01:59:00;4.77;;;3.53;;
8488;SDS011;4281;45.772;12.852;2023-02-28T02:01:29;4.17;;;3.67;;
8488;SDS011;4281;45.772;12.852;2023-02-28T02:03:58;4.20;;;3.80;;
8488;SDS011;4281;45.772;12.852;2023-02-28T02:06:30;4.73;;;4.00;;
8488;SDS011;4281;45.772;12.852;2023-02-28T02:09:02;4.57;;;3.90;;
8488;SDS011;4281;45.772;12.852;2023-02-28T02:11:30;4.80;;;4.30;;
8488;SDS011;4281;45.772;12.852;2023-02-28T02:14:06;4.87;;;4.33;;
8488;SDS011;4281;45.772;12.852;2023-02-28T02:17:14;5.07;;;4.57;;
8488;SDS011;4281;45.772;12.852;2023-02-28T02:19:53;3.93;;;3.53;;
8488;SDS011;4281;45.772;12.852;2023-02-28T02:22:43;4.13;;;3.70;;
8488;SDS011;4281;45.772;12.852;2023-02-28T02:25:26;5.73;;;4.70;;
8488;SDS011;4281;45.772;12.852;2023-02-28T02:28:11;4.80;;;4.10;;
8488;SDS011;4281;45.772;12.852;2023-02-28T02:36:53;4.37;;;3.87;;
8488;SDS011;4281;45.772;12.852;2023-02-28T02:39:29;3.83;;;3.43;;
8488;SDS011;4281;45.772;12.852;2023-02-28T02:41:59;4.00;;;3.60;;
8488;SDS011;4281;45.772;12.852;2023-02-28T02:44:30;4.60;;;4.10;;
8488;SDS011;4281;45.772;12.852;2023-02-28T02:47:02;4.33;;;3.90;;
8488;SDS011;4281;45.772;12.852;2023-02-28T02:49:36;4.10;;;3.70;;
8488;SDS011;4281;45.772;12.852;2023-02-28T02:52:05;3.90;;;3.57;;
8488;SDS011;4281;45.772;12.852;2023-02-28T02:54:35;4.47;;;4.07;;
8488;SDS011;4281;45.772;12.852;2023-02-28T02:57:07;4.17;;;3.67;;
8488;SDS011;4281;45.772;12.852;2023-02-28T02:59:40;4.63;;;4.07;;
8488;SDS011;4281;45.772;12.852;2023-02-28T03:02:09;4.97;;;3.60;;
8488;SDS011;4281;45.772;12.852;2023-02-28T03:04:42;3.97;;;3.67;;
8488;SDS011;4281;45.772;12.852;2023-02-28T03:07:11;4.27;;;3.87;;
8488;SDS011;4281;45.772;12.852;2023-02-28T03:09:39;4.37;;;3.97;;
8488;SDS011;4281;45.772;12.852;2023-02-28T03:12:09;4.90;;;4.10;;
8488;SDS011;4281;45.772;12.852;2023-02-28T03:14:45;4.67;;;3.90;;
8488;SDS011;4281;45.772;12.852;2023-02-28T03:17:22;5.60;;;4.07;;
8488;SDS011;4281;45.772;12.852;2023-02-28T03:20:02;4.10;;;3.70;;
8488;SDS011;4281;45.772;12.852;2023-02-28T03:22:43;4.43;;;3.93;;
8488;SDS011;4281;45.772;12.852;2023-02-28T03:25:17;5.20;;;4.63;;
8488;SDS011;4281;45.772;12.852;2023-02-28T03:27:52;5.40;;;4.90;;
8488;SDS011;4281;45.772;12.852;2023-02-28T03:30:24;5.47;;;4.53;;
8488;SDS011;4281;45.772;12.852;2023-02-28T03:32:56;4.97;;;4.40;;
8488;SDS011;4281;45.772;12.852;2023-02-28T03:35:27;5.30;;;4.80;;
8488;SDS011;4281;45.772;12.852;2023-02-28T03:37:59;5.17;;;4.23;;
8488;SDS011;4281;45.772;12.852;2023-02-28T03:40:30;6.03;;;4.83;;
8488;SDS011;4281;45.772;12.852;2023-02-28T03:43:02;5.00;;;4.50;;
8488;SDS011;4281;45.772;12.852;2023-02-28T03:45:35;6.20;;;4.57;;
8488;SDS011;4281;45.772;12.852;2023-02-28T03:48:05;5.33;;;4.83;;
8488;SDS011;4281;45.772;12.852;2023-02-28T03:50:38;5.53;;;4.27;;
8488;SDS011;4281;45.772;12.852;2023-02-28T03:53:08;5.20;;;4.70;;
8488;SDS011;4281;45.772;12.852;2023-02-28T03:55:40;5.87;;;4.50;;
8488;SDS011;4281;45.772;12.852;2023-02-28T03:58:11;4.60;;;4.10;;
8488;SDS011;4281;45.772;12.852;2023-02-28T04:00:43;5.97;;;4.60;;
8488;SDS011;4281;45.772;12.852;2023-02-28T04:03:13;6.40;;;4.40;;
8488;SDS011;4281;45.772;12.852;2023-02-28T04:05:48;5.67;;;4.63;;
8488;SDS011;4281;45.772;12.852;2023-02-28T04:08:18;5.13;;;4.27;;
8488;SDS011;4281;45.772;12.852;2023-02-28T04:10:48;5.80;;;4.77;;
8488;SDS011;4281;45.772;12.852;2023-02-28T04:13:18;6.10;;;4.70;;
8488;SDS011;4281;45.772;12.852;2023-02-28T04:15:46;5.20;;;4.63;;
8488;SDS011;4281;45.772;12.852;2023-02-28T04:18:14;4.40;;;4.00;;
8488;SDS011;4281;45.772;12.852;2023-02-28T04:20:42;6.70;;;4.73;;
8488;SDS011;4281;45.772;12.852;2023-02-28T04:23:11;6.07;;;5.13;;
8488;SDS011;4281;45.772;12.852;2023-02-28T04:25:39;7.27;;;4.70;;
8488;SDS011;4281;45.772;12.852;2023-02-28T04:28:07;5.77;;;4.60;;
8488;SDS011;4281;45.772;12.852;2023-02-28T04:30:37;5.47;;;4.67;;
8488;SDS011;4281;45.772;12.852;2023-02-28T04:33:05;4.50;;;4.10;;
8488;SDS011;4281;45.772;12.852;2023-02-28T04:35:33;4.37;;;3.97;;
8488;SDS011;4281;45.772;12.852;2023-02-28T04:38:01;4.20;;;3.80;;
8488;SDS011;4281;45.772;12.852;2023-02-28T04:40:31;5.73;;;4.50;;
8488;SDS011;4281;45.772;12.852;2023-02-28T04:42:58;5.07;;;4.07;;
8488;SDS011;4281;45.772;12.852;2023-02-28T04:45:26;5.93;;;4.60;;
8488;SDS011;4281;45.772;12.852;2023-02-28T04:47:56;5.47;;;4.60;;
8488;SDS011;4281;45.772;12.852;2023-02-28T04:50:24;5.30;;;4.47;;
8488;SDS011;4281;45.772;12.852;2023-02-28T04:52:51;5.67;;;4.93;;
8488;SDS011;4281;45.772;12.852;2023-02-28T04:55:20;6.07;;;4.47;;
8488;SDS011;4281;45.772;12.852;2023-02-28T04:57:50;5.73;;;5.20;;
8488;SDS011;4281;45.772;12.852;2023-02-28T05:00:18;5.80;;;4.80;;
8488;SDS011;4281;45.772;12.852;2023-02-28T05:02:46;6.20;;;5.00;;
8488;SDS011;4281;45.772;12.852;2023-02-28T05:05:14;6.10;;;4.53;;
8488;SDS011;4281;45.772;12.852;2023-02-28T05:07:44;5.40;;;4.37;;
8488;SDS011;4281;45.772;12.852;2023-02-28T05:10:12;5.90;;;5.10;;
8488;SDS011;4281;45.772;12.852;2023-02-28T05:12:40;7.83;;;5.00;;
8488;SDS011;4281;45.772;12.852;2023-02-28T05:15:10;5.23;;;4.43;;
8488;SDS011;4281;45.772;12.852;2023-02-28T05:17:40;6.10;;;5.27;;
8488;SDS011;4281;45.772;12.852;2023-02-28T05:20:08;5.73;;;4.77;;
8488;SDS011;4281;45.772;12.852;2023-02-28T05:22:41;6.33;;;5.10;;
8488;SDS011;4281;45.772;12.852;2023-02-28T05:25:10;6.17;;;5.00;;
8488;SDS011;4281;45.772;12.852;2023-02-28T05:27:41;6.60;;;5.40;;
8488;SDS011;4281;45.772;12.852;2023-02-28T05:30:11;6.23;;;5.23;;
8488;SDS011;4281;45.772;12.852;2023-02-28T05:32:39;5.87;;;5.03;;
8488;SDS011;4281;45.772;12.852;2023-02-28T05:35:09;7.13;;;5.30;;
8488;SDS011;4281;45.772;12.852;2023-02-28T05:37:38;7.03;;;4.97;;
8488;SDS011;4281;45.772;12.852;2023-02-28T05:40:07;5.97;;;4.90;;
8488;SDS011;4281;45.772;12.852;2023-02-28T05:42:36;6.60;;;5.10;;
8488;SDS011;4281;45.772;12.852;2023-02-28T05:45:05;7.03;;;5.00;;
8488;SDS011;4281;45.772;12.852;2023-02-28T05:47:35;5.83;;;5.10;;
8488;SDS011;4281;45.772;12.852;2023-02-28T05:54:02;5.10;;;4.60;;
8488;SDS011;4281;45.772;12.852;2023-02-28T05:57:38;6.40;;;4.73;;
8488;SDS011;4281;45.772;12.852;2023-02-28T06:03:49;8.37;;;5.10;;
8488;SDS011;4281;45.772;12.852;2023-02-28T06:06:17;6.20;;;4.90;;
8488;SDS011;4281;45.772;12.852;2023-02-28T06:08:45;6.47;;;5.10;;
8488;SDS011;4281;45.772;12.852;2023-02-28T06:11:13;7.20;;;5.43;;
8488;SDS011;4281;45.772;12.852;2023-02-28T06:13:41;5.70;;;5.10;;
8488;SDS011;4281;45.772;12.852;2023-02-28T06:16:09;6.87;;;5.73;;
8488;SDS011;4281;45.772;12.852;2023-02-28T06:18:38;6.33;;;5.33;;
8488;SDS011;4281;45.772;12.852;2023-02-28T06:21:07;7.40;;;5.53;;
8488;SDS011;4281;45.772;12.852;2023-02-28T06:23:35;6.23;;;5.40;;
8488;SDS011;4281;45.772;12.852;2023-02-28T06:26:03;6.33;;;5.47;;
8488;SDS011;4281;45.772;12.852;2023-02-28T06:28:31;6.60;;;5.33;;
8488;SDS011;4281;45.772;12.852;2023-02-28T06:30:59;7.47;;;6.03;;
8488;SDS011;4281;45.772;12.852;2023-02-28T06:33:33;7.07;;;5.60;;
8488;SDS011;4281;45.772;12.852;2023-02-28T06:36:01;6.60;;;5.87;;
8488;SDS011;4281;45.772;12.852;2023-02-28T06:38:32;5.93;;;5.33;;
8488;SDS011;4281;45.772;12.852;2023-02-28T06:41:00;7.63;;;5.90;;
8488;SDS011;4281;45.772;12.852;2023-02-28T06:43:29;6.67;;;5.33;;
8488;SDS011;4281;45.772;12.852;2023-02-28T06:45:59;8.13;;;6.07;;
8488;SDS011;4281;45.772;12.852;2023-02-28T06:48:27;7.53;;;6.40;;
8488;SDS011;4281;45.772;12.852;2023-02-28T06:51:01;8.50;;;6.60;;
8488;SDS011;4281;45.772;12.852;2023-02-28T06:53:29;7.57;;;6.60;;
8488;SDS011;4281;45.772;12.852;2023-02-28T06:55:59;6.93;;;5.70;;
8488;SDS011;4281;45.772;12.852;2023-02-28T06:58:26;7.60;;;5.97;;
8488;SDS011;4281;45.772;12.852;2023-02-28T07:00:54;7.50;;;5.87;;
8488;SDS011;4281;45.772;12.852;2023-02-28T07:03:22;7.80;;;6.00;;
8488;SDS011;4281;45.772;12.852;2023-02-28T07:05:50;7.70;;;6.23;;
8488;SDS011;4281;45.772;12.852;2023-02-28T07:08:18;6.43;;;5.83;;
8488;SDS011;4281;45.772;12.852;2023-02-28T07:10:48;8.23;;;6.17;;
8488;SDS011;4281;45.772;12.852;2023-02-28T07:13:19;7.77;;;6.13;;
8488;SDS011;4281;45.772;12.852;2023-02-28T07:15:52;7.87;;;6.13;;
8488;SDS011;4281;45.772;12.852;2023-02-28T07:18:21;7.40;;;6.13;;
8488;SDS011;4281;45.772;12.852;2023-02-28T07:20:49;8.27;;;6.37;;
8488;SDS011;4281;45.772;12.852;2023-02-28T07:23:17;7.17;;;6.03;;
8488;SDS011;4281;45.772;12.852;2023-02-28T07:25:45;8.30;;;6.10;;
8488;SDS011;4281;45.772;12.852;2023-02-28T07:28:14;8.23;;;6.37;;
8488;SDS011;4281;45.772;12.852;2023-02-28T07:30:42;8.57;;;6.60;;
8488;SDS011;4281;45.772;12.852;2023-02-28T07:33:10;8.17;;;6.63;;
8488;SDS011;4281;45.772;12.852;2023-02-28T07:35:40;8.53;;;6.23;;
8488;SDS011;4281;45.772;12.852;2023-02-28T07:38:08;6.67;;;5.97;;
8488;SDS011;4281;45.772;12.852;2023-02-28T07:40:36;6.40;;;5.73;;
8488;SDS011;4281;45.772;12.852;2023-02-28T07:43:03;7.63;;;6.57;;
8488;SDS011;4281;45.772;12.852;2023-02-28T07:45:33;9.43;;;6.37;;
8488;SDS011;4281;45.772;12.852;2023-02-28T07:48:01;7.83;;;5.77;;
8488;SDS011;4281;45.772;12.852;2023-02-28T07:50:29;8.43;;;5.93;;
8488;SDS011;4281;45.772;12.852;2023-02-28T07:52:57;7.53;;;5.83;;
8488;SDS011;4281;45.772;12.852;2023-02-28T07:55:25;6.97;;;5.90;;
8488;SDS011;4281;45.772;12.852;2023-02-28T07:57:53;8.10;;;5.67;;
8488;SDS011;4281;45.772;12.852;2023-02-28T08:00:21;7.17;;;5.90;;
8488;SDS011;4281;45.772;12.852;2023-02-28T08:02:51;7.90;;;6.00;;
8488;SDS011;4281;45.772;12.852;2023-02-28T08:05:19;6.53;;;5.93;;
8488;SDS011;4281;45.772;12.852;2023-02-28T08:07:48;7.60;;;6.37;;
8488;SDS011;4281;45.772;12.852;2023-02-28T08:10:16;6.33;;;5.43;;
8488;SDS011;4281;45.772;12.852;2023-02-28T08:12:44;7.73;;;6.80;;
8488;SDS011;4281;45.772;12.852;2023-02-28T08:15:12;9.60;;;7.10;;
8488;SDS011;4281;45.772;12.852;2023-02-28T08:17:40;8.83;;;6.40;;
8488;SDS011;4281;45.772;12.852;2023-02-28T08:20:09;8.10;;;6.23;;
8488;SDS011;4281;45.772;12.852;2023-02-28T08:22:38;8.43;;;6.37;;
8488;SDS011;4281;45.772;12.852;2023-02-28T08:25:06;8.43;;;5.87;;
8488;SDS011;4281;45.772;12.852;2023-02-28T08:27:35;6.80;;;5.73;;
8488;SDS011;4281;45.772;12.852;2023-02-28T08:30:04;7.43;;;5.80;;
8488;SDS011;4281;45.772;12.852;2023-02-28T08:32:32;7.10;;;5.87;;
8488;SDS011;4281;45.772;12.852;2023-02-28T08:35:01;6.13;;;5.53;;
8488;SDS011;4281;45.772;12.852;2023-02-28T08:37:30;6.97;;;5.83;;
8488;SDS011;4281;45.772;12.852;2023-02-28T08:39:58;7.00;;;5.50;;
8488;SDS011;4281;45.772;12.852;2023-02-28T08:42:26;6.40;;;5.67;;
8488;SDS011;4281;45.772;12.852;2023-02-28T08:44:54;6.07;;;5.47;;
8488;SDS011;4281;45.772;12.852;2023-02-28T08:47:22;6.03;;;5.43;;
8488;SDS011;4281;45.772;12.852;2023-02-28T08:49:50;6.10;;;5.50;;
8488;SDS011;4281;45.772;12.852;2023-02-28T08:52:18;6.17;;;5.53;;
8488;SDS011;4281;45.772;12.852;2023-02-28T08:54:47;6.07;;;5.13;;
8488;SDS011;4281;45.772;12.852;2023-02-28T08:57:15;6.23;;;5.63;;
8488;SDS011;4281;45.772;12.852;2023-02-28T08:59:43;7.83;;;5.43;;
8488;SDS011;4281;45.772;12.852;2023-02-28T09:02:12;5.87;;;5.27;;
8488;SDS011;4281;45.772;12.852;2023-02-28T09:04:40;6.03;;;5.40;;
8488;SDS011;4281;45.772;12.852;2023-02-28T09:07:11;7.43;;;5.87;;
8488;SDS011;4281;45.772;12.852;2023-02-28T09:09:40;5.50;;;4.83;;
8488;SDS011;4281;45.772;12.852;2023-02-28T09:12:21;5.53;;;4.93;;
8488;SDS011;4281;45.772;12.852;2023-02-28T09:14:49;5.90;;;5.30;;
8488;SDS011;4281;45.772;12.852;2023-02-28T09:17:17;7.10;;;5.63;;
8488;SDS011;4281;45.772;12.852;2023-02-28T09:19:47;7.90;;;6.13;;
8488;SDS011;4281;45.772;12.852;2023-02-28T09:22:15;6.67;;;5.87;;
8488;SDS011;4281;45.772;12.852;2023-02-28T09:24:43;6.27;;;5.53;;
8488;SDS011;4281;45.772;12.852;2023-02-28T09:27:11;6.53;;;5.77;;
8488;SDS011;4281;45.772;12.852;2023-02-28T09:29:40;6.73;;;6.00;;
8488;SDS011;4281;45.772;12.852;2023-02-28T09:32:08;6.83;;;6.13;;
8488;SDS011;4281;45.772;12.852;2023-02-28T09:34:37;7.13;;;5.43;;
8488;SDS011;4281;45.772;12.852;2023-02-28T09:37:05;6.60;;;5.73;;
8488;SDS011;4281;45.772;12.852;2023-02-28T09:39:33;6.77;;;6.00;;
8488;SDS011;4281;45.772;12.852;2023-02-28T09:42:00;7.03;;;5.83;;
8488;SDS011;4281;45.772;12.852;2023-02-28T09:44:30;6.33;;;5.23;;
8488;SDS011;4281;45.772;12.852;2023-02-28T09:47:07;6.20;;;5.60;;
8488;SDS011;4281;45.772;12.852;2023-02-28T09:49:40;7.43;;;5.70;;
8488;SDS011;4281;45.772;12.852;2023-02-28T09:52:10;6.80;;;6.10;;
8488;SDS011;4281;45.772;12.852;2023-02-28T09:54:40;6.37;;;5.70;;
8488;SDS011;4281;45.772;12.852;2023-02-28T09:57:10;6.40;;;5.50;;
8488;SDS011;4281;45.772;12.852;2023-02-28T09:59:46;5.93;;;5.30;;
8488;SDS011;4281;45.772;12.852;2023-02-28T10:02:29;5.90;;;5.23;;
8488;SDS011;4281;45.772;12.852;2023-02-28T10:05:11;6.33;;;5.43;;
8488;SDS011;4281;45.772;12.852;2023-02-28T10:07:47;5.80;;;5.20;;
8488;SDS011;4281;45.772;12.852;2023-02-28T10:10:22;5.63;;;5.03;;
8488;SDS011;4281;45.772;12.852;2023-02-28T10:12:52;6.10;;;5.47;;
8488;SDS011;4281;45.772;12.852;2023-02-28T10:15:22;5.27;;;4.77;;
8488;SDS011;4281;45.772;12.852;2023-02-28T10:17:54;6.47;;;5.37;;
8488;SDS011;4281;45.772;12.852;2023-02-28T10:20:35;5.57;;;4.97;;
8488;SDS011;4281;45.772;12.852;2023-02-28T10:23:07;6.07;;;5.43;;
8488;SDS011;4281;45.772;12.852;2023-02-28T10:25:37;5.97;;;5.20;;
8488;SDS011;4281;45.772;12.852;2023-02-28T10:28:09;5.23;;;4.73;;
8488;SDS011;4281;45.772;12.852;2023-02-28T10:30:39;5.70;;;5.07;;
8488;SDS011;4281;45.772;12.852;2023-02-28T10:33:13;6.50;;;5.47;;
8488;SDS011;4281;45.772;12.852;2023-02-28T10:35:46;6.80;;;5.80;;
8488;SDS011;4281;45.772;12.852;2023-02-28T10:38:17;6.47;;;5.77;;
8488;SDS011;4281;45.772;12.852;2023-02-28T10:40:46;5.67;;;5.17;;
8488;SDS011;4281;45.772;12.852;2023-02-28T10:43:22;5.97;;;5.07;;
8488;SDS011;4281;45.772;12.852;2023-02-28T10:45:53;6.10;;;5.50;;
8488;SDS011;4281;45.772;12.852;2023-02-28T10:48:32;6.43;;;5.30;;
8488;SDS011;4281;45.772;12.852;2023-02-28T10:51:01;5.40;;;4.90;;
8488;SDS011;4281;45.772;12.852;2023-02-28T10:53:33;5.00;;;4.40;;
8488;SDS011;4281;45.772;12.852;2023-02-28T10:56:22;5.00;;;4.50;;
8488;SDS011;4281;45.772;12.852;2023-02-28T10:58:54;5.87;;;5.10;;
8488;SDS011;4281;45.772;12.852;2023-02-28T11:01:23;6.27;;;5.07;;
8488;SDS011;4281;45.772;12.852;2023-02-28T11:03:54;5.63;;;4.80;;
8488;SDS011;4281;45.772;12.852;2023-02-28T11:06:22;5.70;;;5.10;;
8488;SDS011;4281;45.772;12.852;2023-02-28T11:08:53;5.27;;;4.77;;
8488;SDS011;4281;45.772;12.852;2023-02-28T11:11:22;5.40;;;4.90;;
8488;SDS011;4281;45.772;12.852;2023-02-28T11:13:54;5.33;;;4.83;;
8488;SDS011;4281;45.772;12.852;2023-02-28T11:16:31;5.20;;;4.70;;
8488;SDS011;4281;45.772;12.852;2023-02-28T11:19:01;6.13;;;5.00;;
8488;SDS011;4281;45.772;12.852;2023-02-28T11:21:30;5.50;;;5.00;;
8488;SDS011;4281;45.772;12.852;2023-02-28T11:24:01;5.60;;;4.83;;
8488;SDS011;4281;45.772;12.852;2023-02-28T11:26:38;6.23;;;4.60;;
8488;SDS011;4281;45.772;12.852;2023-02-28T11:29:12;6.30;;;5.03;;
8488;SDS011;4281;45.772;12.852;2023-02-28T11:32:00;5.73;;;5.13;;
8488;SDS011;4281;45.772;12.852;2023-02-28T11:34:31;5.97;;;5.00;;
8488;SDS011;4281;45.772;12.852;2023-02-28T11:36:59;7.00;;;5.33;;
8488;SDS011;4281;45.772;12.852;2023-02-28T11:39:31;5.37;;;4.67;;
8488;SDS011;4281;45.772;12.852;2023-02-28T11:45:03;5.33;;;4.83;;
8488;SDS011;4281;45.772;12.852;2023-02-28T11:47:43;6.03;;;4.60;;
8488;SDS011;4281;45.772;12.852;2023-02-28T11:50:19;5.50;;;4.90;;
8488;SDS011;4281;45.772;12.852;2023-02-28T11:52:55;4.90;;;4.40;;
8488;SDS011;4281;45.772;12.852;2023-02-28T11:55:25;5.23;;;4.73;;
8488;SDS011;4281;45.772;12.852;2023-02-28T12:00:57;4.80;;;4.30;;
8488;SDS011;4281;45.772;12.852;2023-02-28T12:03:35;4.63;;;4.23;;
8488;SDS011;4281;45.772;12.852;2023-02-28T12:06:16;5.10;;;4.43;;
8488;SDS011;4281;45.772;12.852;2023-02-28T12:08:49;6.20;;;4.57;;
8488;SDS011;4281;45.772;12.852;2023-02-28T12:11:27;5.03;;;4.53;;
8488;SDS011;4281;45.772;12.852;2023-02-28T12:14:03;4.90;;;4.40;;
8488;SDS011;4281;45.772;12.852;2023-02-28T12:16:47;5.20;;;4.43;;
8488;SDS011;4281;45.772;12.852;2023-02-28T12:19:22;5.20;;;4.63;;
8488;SDS011;4281;45.772;12.852;2023-02-28T12:21:57;4.77;;;4.37;;
8488;SDS011;4281;45.772;12.852;2023-02-28T12:27:42;4.90;;;4.37;;
8488;SDS011;4281;45.772;12.852;2023-02-28T12:30:13;5.20;;;4.37;;
8488;SDS011;4281;45.772;12.852;2023-02-28T12:32:44;6.17;;;4.90;;
8488;SDS011;4281;45.772;12.852;2023-02-28T12:35:14;4.80;;;4.30;;
8488;SDS011;4281;45.772;12.852;2023-02-28T12:37:47;5.43;;;4.83;;
8488;SDS011;4281;45.772;12.852;2023-02-28T12:40:19;5.20;;;4.70;;
8488;SDS011;4281;45.772;12.852;2023-02-28T12:42:49;5.47;;;4.93;;
8488;SDS011;4281;45.772;12.852;2023-02-28T12:45:20;5.17;;;4.67;;
8488;SDS011;4281;45.772;12.852;2023-02-28T12:47:50;4.90;;;4.40;;
8488;SDS011;4281;45.772;12.852;2023-02-28T12:50:22;4.63;;;4.10;;
8488;SDS011;4281;45.772;12.852;2023-02-28T12:52:53;5.03;;;4.53;;
8488;SDS011;4281;45.772;12.852;2023-02-28T12:55:29;5.60;;;5.00;;
8488;SDS011;4281;45.772;12.852;2023-02-28T12:58:05;5.53;;;4.47;;
8488;SDS011;4281;45.772;12.852;2023-02-28T13:00:37;5.13;;;4.63;;
8488;SDS011;4281;45.772;12.852;2023-02-28T13:03:29;5.37;;;4.70;;
8488;SDS011;4281;45.772;12.852;2023-02-28T13:11:39;6.13;;;5.20;;
8488;SDS011;4281;45.772;12.852;2023-02-28T13:14:16;5.50;;;4.43;;
8488;SDS011;4281;45.772;12.852;2023-02-28T13:16:58;5.40;;;4.83;;
8488;SDS011;4281;45.772;12.852;2023-02-28T13:19:28;5.43;;;4.93;;
8488;SDS011;4281;45.772;12.852;2023-02-28T13:21:58;5.93;;;4.90;;
8488;SDS011;4281;45.772;12.852;2023-02-28T13:24:41;5.97;;;4.90;;
8488;SDS011;4281;45.772;12.852;2023-02-28T13:27:17;5.87;;;5.27;;
8488;SDS011;4281;45.772;12.852;2023-02-28T13:29:51;5.43;;;4.63;;
8488;SDS011;4281;45.772;12.852;2023-02-28T13:32:30;5.53;;;4.83;;
8488;SDS011;4281;45.772;12.852;2023-02-28T13:44:10;5.70;;;4.63;;
8488;SDS011;4281;45.772;12.852;2023-02-28T13:49:47;4.70;;;4.30;;
8488;SDS011;4281;45.772;12.852;2023-02-28T13:52:16;5.47;;;4.97;;
8488;SDS011;4281;45.772;12.852;2023-02-28T13:54:50;5.20;;;4.70;;
8488;SDS011;4281;45.772;12.852;2023-02-28T13:57:27;5.13;;;4.63;;
8488;SDS011;4281;45.772;12.852;2023-02-28T14:00:06;5.40;;;4.90;;
8488;SDS011;4281;45.772;12.852;2023-02-28T14:05:49;5.77;;;5.03;;
8488;SDS011;4281;45.772;12.852;2023-02-28T14:08:35;5.20;;;4.70;;
8488;SDS011;4281;45.772;12.852;2023-02-28T14:11:04;6.07;;;5.43;;
8488;SDS011;4281;45.772;12.852;2023-02-28T14:13:37;6.83;;;5.63;;
8488;SDS011;4281;45.772;12.852;2023-02-28T14:16:12;6.60;;;5.50;;
8488;SDS011;4281;45.772;12.852;2023-02-28T14:18:42;6.17;;;5.40;;
8488;SDS011;4281;45.772;12.852;2023-02-28T14:21:19;6.10;;;5.50;;
8488;SDS011;4281;45.772;12.852;2023-02-28T14:24:10;6.50;;;5.60;;
8488;SDS011;4281;45.772;12.852;2023-02-28T14:26:53;6.93;;;5.80;;
8488;SDS011;4281;45.772;12.852;2023-02-28T14:29:30;6.40;;;5.40;;
8488;SDS011;4281;45.772;12.852;2023-02-28T14:32:13;6.07;;;5.47;;
8488;SDS011;4281;45.772;12.852;2023-02-28T14:34:43;5.80;;;5.20;;
8488;SDS011;4281;45.772;12.852;2023-02-28T14:37:19;5.93;;;4.90;;
8488;SDS011;4281;45.772;12.852;2023-02-28T14:39:48;5.70;;;5.07;;
8488;SDS011;4281;45.772;12.852;2023-02-28T14:42:27;7.33;;;4.97;;
8488;SDS011;4281;45.772;12.852;2023-02-28T14:44:56;6.60;;;5.90;;
8488;SDS011;4281;45.772;12.852;2023-02-28T14:47:27;6.33;;;5.73;;
8488;SDS011;4281;45.772;12.852;2023-02-28T14:49:58;6.77;;;5.97;;
8488;SDS011;4281;45.772;12.852;2023-02-28T14:52:27;6.13;;;5.53;;
8488;SDS011;4281;45.772;12.852;2023-02-28T14:54:56;7.57;;;5.37;;
8488;SDS011;4281;45.772;12.852;2023-02-28T14:57:26;6.23;;;5.53;;
8488;SDS011;4281;45.772;12.852;2023-02-28T15:00:02;5.67;;;5.07;;
8488;SDS011;4281;45.772;12.852;2023-02-28T15:02:38;6.50;;;5.53;;
8488;SDS011;4281;45.772;12.852;2023-02-28T15:05:23;6.80;;;6.10;;
8488;SDS011;4281;45.772;12.852;2023-02-28T15:08:09;6.33;;;5.47;;
8488;SDS011;4281;45.772;12.852;2023-02-28T15:10:39;8.97;;;6.93;;
8488;SDS011;4281;45.772;12.852;2023-02-28T15:13:10;7.93;;;5.87;;
8488;SDS011;4281;45.772;12.852;2023-02-28T15:15:41;7.83;;;6.10;;
8488;SDS011;4281;45.772;12.852;2023-02-28T15:18:30;6.73;;;6.03;;
8488;SDS011;4281;45.772;12.852;2023-02-28T15:21:02;6.50;;;5.90;;
8488;SDS011;4281;45.772;12.852;2023-02-28T15:23:32;6.83;;;6.13;;
8488;SDS011;4281;45.772;12.852;2023-02-28T15:26:00;6.03;;;5.43;;
8488;SDS011;4281;45.772;12.852;2023-02-28T15:28:28;7.50;;;6.80;;
8488;SDS011;4281;45.772;12.852;2023-02-28T15:30:58;7.27;;;6.43;;
8488;SDS011;4281;45.772;12.852;2023-02-28T15:33:27;6.90;;;6.13;;
8488;SDS011;4281;45.772;12.852;2023-02-28T15:36:10;5.87;;;5.30;;
8488;SDS011;4281;45.772;12.852;2023-02-28T15:38:40;7.60;;;6.47;;
8488;SDS011;4281;45.772;12.852;2023-02-28T15:41:20;6.97;;;6.27;;
8488;SDS011;4281;45.772;12.852;2023-02-28T15:43:49;7.67;;;6.87;;
8488;SDS011;4281;45.772;12.852;2023-02-28T15:46:59;6.67;;;5.77;;
8488;SDS011;4281;45.772;12.852;2023-02-28T15:49:32;6.83;;;5.83;;
8488;SDS011;4281;45.772;12.852;2023-02-28T15:52:12;6.70;;;6.00;;
8488;SDS011;4281;45.772;12.852;2023-02-28T15:54:41;8.53;;;6.63;;
8488;SDS011;4281;45.772;12.852;2023-02-28T15:57:13;7.43;;;6.73;;
8488;SDS011;4281;45.772;12.852;2023-02-28T15:59:42;7.63;;;6.93;;
8488;SDS011;4281;45.772;12.852;2023-02-28T16:02:18;6.93;;;6.23;;
8488;SDS011;4281;45.772;12.852;2023-02-28T16:04:58;8.40;;;7.13;;
8488;SDS011;4281;45.772;12.852;2023-02-28T16:07:28;7.13;;;6.43;;
8488;SDS011;4281;45.772;12.852;2023-02-28T16:09:56;7.20;;;6.50;;
8488;SDS011;4281;45.772;12.852;2023-02-28T16:12:25;7.30;;;6.40;;
8488;SDS011;4281;45.772;12.852;2023-02-28T16:14:55;7.20;;;6.50;;